Latest Weather Observations for Banana Bank

IDQ60901

Issued at 5:31 pm EST Tuesday 10 December 2019 (issued every 10 minutes, with the page automatically refreshed every 10 minutes)

About weather observations | Map of Brisbane area stations | Latest observations for Brisbane area | Other Formats
Station Details ID: 040925 Name: BANANA BANK NORTH BEACON Lat: -27.53 Lon: 153.33 Height: 7.0 m
Data from the previous 72 hours. | See also: Recent months at Banana Bank
Date/Time
EST
Temp
°C
App
Temp
°C
Dew
Point
°C
Rel
Hum
%
Delta-T
°C
Wind Press
QNH
hPa
Press
MSL
hPa
Rain since
9am
mm
Dir  Spd
km/h
Gust
km/h
Spd
kts
Gust
kts
10/05:30pm - - - - - NNE 32 39 17 21 - - -
10/05:00pm - - - - - N 32 37 17 20 - - -
10/04:30pm - - - - - N 30 39 16 21 - - -
10/04:00pm - - - - - NNE 32 35 17 19 - - -
10/03:30pm - - - - - NNE 30 39 16 21 - - -
10/03:00pm - - - - - NNE 30 37 16 20 - - -
10/02:30pm - - - - - NNE 32 37 17 20 - - -
10/02:00pm - - - - - N 26 33 14 18 - - -
10/01:30pm - - - - - NNE 22 28 12 15 - - -
10/01:00pm - - - - - N 22 28 12 15 - - -
10/12:30pm - - - - - N 22 26 12 14 - - -
10/12:00pm - - - - - N 22 26 12 14 - - -
10/11:30am - - - - - N 19 20 10 11 - - -
10/11:00am - - - - - N 15 17 8 9 - - -
10/10:30am - - - - - NNW 17 20 9 11 - - -
10/10:00am - - - - - NW 17 20 9 11 - - -
10/09:30am - - - - - NW 17 19 9 10 - - -
10/09:00am - - - - - NW 17 20 9 11 - - -
10/08:30am - - - - - NW 15 20 8 11 - - -
10/08:00am - - - - - NW 15 17 8 9 - - -
10/07:30am - - - - - NW 9 13 5 7 - - -
10/07:00am - - - - - NNW 11 15 6 8 - - -
10/06:30am - - - - - N 11 13 6 7 - - -
10/06:00am - - - - - N 11 13 6 7 - - -
10/05:30am - - - - - N 11 15 6 8 - - -
10/05:00am - - - - - N 11 15 6 8 - - -
10/04:30am - - - - - N 13 15 7 8 - - -
10/04:00am - - - - - N 9 11 5 6 - - -
10/03:30am - - - - - N 11 13 6 7 - - -
10/03:00am - - - - - NNE 13 15 7 8 - - -
10/02:30am - - - - - N 9 11 5 6 - - -
10/02:00am - - - - - N 9 11 5 6 - - -
10/01:30am - - - - - N 7 9 4 5 - - -
10/01:00am - - - - - NNE 9 11 5 6 - - -
10/12:30am - - - - - N 9 9 5 5 - - -
10/12:00am - - - - - NNE 11 13 6 7 - - -
 
Date/Time
EST
Temp
°C
App
Temp
°C
Dew
Point
°C
Rel
Hum
%
Delta-T
°C
Wind Press
QNH
hPa
Press
MSL
hPa
Rain since
9am
mm
Dir  Spd
km/h
Gust
km/h
Spd
kts
Gust
kts
09/11:30pm - - - - - N 13 17 7 9 - - -
09/11:00pm - - - - - N 13 15 7 8 - - -
09/10:30pm - - - - - N 15 19 8 10 - - -
09/10:00pm - - - - - N 13 17 7 9 - - -
09/09:30pm - - - - - NNE 11 13 6 7 - - -
09/09:00pm - - - - - NNE 9 11 5 6 - - -
09/08:30pm - - - - - NNE 11 13 6 7 - - -
09/08:00pm - - - - - NNE 13 17 7 9 - - -
09/07:30pm - - - - - NNE 11 13 6 7 - - -
09/07:00pm - - - - - NE 11 15 6 8 - - -
09/06:30pm - - - - - E 13 17 7 9 - - -
09/06:00pm - - - - - E 13 15 7 8 - - -
09/05:30pm - - - - - E 19 20 10 11 - - -
09/05:00pm - - - - - E 19 22 10 12 - - -
09/04:30pm - - - - - E 19 22 10 12 - - -
09/04:00pm - - - - - ESE 19 22 10 12 - - -
09/03:30pm - - - - - ESE 20 24 11 13 - - -
09/03:00pm - - - - - ESE 24 26 13 14 - - -
09/02:30pm - - - - - ESE 22 24 12 13 - - -
09/02:00pm - - - - - ESE 22 28 12 15 - - -
09/01:30pm - - - - - SE 24 28 13 15 - - -
09/01:00pm - - - - - ESE 26 30 14 16 - - -
09/12:30pm - - - - - SE 26 30 14 16 - - -
09/12:00pm - - - - - SE 28 32 15 17 - - -
09/11:30am - - - - - SE 28 32 15 17 - - -
09/11:00am - - - - - SE 26 30 14 16 - - -
09/10:30am - - - - - SE 26 32 14 17 - - -
09/10:00am - - - - - SE 26 32 14 17 - - -
09/09:30am - - - - - SE 28 32 15 17 - - -
09/09:00am - - - - - SE 26 30 14 16 - - -
09/08:30am - - - - - SSE 26 33 14 18 - - -
09/08:00am - - - - - SSE 28 32 15 17 - - -
09/07:30am - - - - - SSE 26 32 14 17 - - -
09/07:00am - - - - - SSE 24 30 13 16 - - -
09/06:30am - - - - - SSE 24 30 13 16 - - -
09/06:00am - - - - - SSE 22 26 12 14 - - -
09/05:30am - - - - - SSE 20 24 11 13 - - -
09/05:00am - - - - - S 19 22 10 12 - - -
09/04:30am - - - - - SSE 20 24 11 13 - - -
09/04:00am - - - - - SSE 24 28 13 15 - - -
09/03:30am - - - - - SSE 22 26 12 14 - - -
09/03:00am - - - - - SSE 22 28 12 15 - - -
09/02:30am - - - - - SSE 24 28 13 15 - - -
09/02:00am - - - - - SSE 28 32 15 17 - - -
09/01:30am - - - - - S 22 26 12 14 - - -
09/01:00am - - - - - S 19 20 10 11 - - -
09/12:30am - - - - - S 19 22 10 12 - - -
09/12:00am - - - - - S 19 22 10 12 - - -
 
Date/Time
EST
Temp
°C
App
Temp
°C
Dew
Point
°C
Rel
Hum
%
Delta-T
°C
Wind Press
QNH
hPa
Press
MSL
hPa
Rain since
9am
mm
Dir  Spd
km/h
Gust
km/h
Spd
kts
Gust
kts
08/11:30pm - - - - - SSE 19 20 10 11 - - -
08/11:00pm - - - - - SSE 17 20 9 11 - - -
08/10:30pm - - - - - SE 19 22 10 12 - - -
08/10:00pm - - - - - SE 22 28 12 15 - - -
08/09:30pm - - - - - SE 26 30 14 16 - - -
08/09:00pm - - - - - SE 28 33 15 18 - - -
08/08:30pm - - - - - SE 26 32 14 17 - - -
08/08:00pm - - - - - SE 28 33 15 18 - - -
08/07:30pm - - - - - SE 28 33 15 18 - - -
08/07:00pm - - - - - SE 28 35 15 19 - - -
08/06:30pm - - - - - SE 30 35 16 19 - - -
08/06:00pm - - - - - SE 30 37 16 20 - - -
08/05:30pm - - - - - SE 33 43 18 23 - - -
08/05:00pm - - - - - SE 33 41 18 22 - - -
08/04:30pm - - - - - SE 33 39 18 21 - - -
08/04:00pm - - - - - SE 32 39 17 21 - - -
08/03:30pm - - - - - SE 32 37 17 20 - - -
08/03:00pm - - - - - SE 32 37 17 20 - - -
08/02:30pm - - - - - SE 32 35 17 19 - - -
08/02:00pm - - - - - SE 28 33 15 18 - - -
08/01:30pm - - - - - SE 28 33 15 18 - - -
08/01:00pm - - - - - SE 26 32 14 17 - - -
08/12:30pm - - - - - SE 28 32 15 17 - - -
08/12:00pm - - - - - SE 28 33 15 18 - - -
08/11:30am - - - - - SE 28 32 15 17 - - -
08/11:00am - - - - - SE 30 33 16 18 - - -
08/10:30am - - - - - SSE 32 35 17 19 - - -
08/10:00am - - - - - SSE 30 35 16 19 - - -
08/09:30am - - - - - SSE 30 32 16 17 - - -
08/09:00am - - - - - SSE 32 35 17 19 - - -
08/08:30am - - - - - SSE 32 39 17 21 - - -
08/08:00am - - - - - SSE 30 35 16 19 - - -
08/07:30am - - - - - SSE 28 35 15 19 - - -
08/07:00am - - - - - SSE 30 35 16 19 - - -
08/06:30am - - - - - SSE 28 32 15 17 - - -
08/06:00am - - - - - SSE 24 30 13 16 - - -
08/05:30am - - - - - SSE 26 32 14 17 - - -
08/05:00am - - - - - SSE 26 33 14 18 - - -
08/04:30am - - - - - SSE 26 33 14 18 - - -
08/04:00am - - - - - SSE 30 35 16 19 - - -
08/03:30am - - - - - SSE 28 33 15 18 - - -
08/03:00am - - - - - SSE 30 35 16 19 - - -
08/02:30am - - - - - SSE 30 35 16 19 - - -
08/02:00am - - - - - SSE 28 35 15 19 - - -
08/01:30am - - - - - SSE 28 32 15 17 - - -
08/01:00am - - - - - SE 28 33 15 18 - - -
08/12:30am - - - - - SE 30 35 16 19 - - -
08/12:00am - - - - - SSE 30 35 16 19 - - -
 
Date/Time
EST
Temp
°C
App
Temp
°C
Dew
Point
°C
Rel
Hum
%
Delta-T
°C
Wind Press
QNH
hPa
Press
MSL
hPa
Rain since
9am
mm
Dir  Spd
km/h
Gust
km/h
Spd
kts
Gust
kts
07/11:30pm - - - - - SSE 32 39 17 21 - - -
07/11:00pm - - - - - SSE 30 35 16 19 - - -
07/10:30pm - - - - - SSE 33 41 18 22 - - -
07/10:00pm - - - - - SSE 33 43 18 23 - - -
07/09:30pm - - - - - SSE 37 43 20 23 - - -
07/09:00pm - - - - - SSE 37 46 20 25 - - -
07/08:30pm - - - - - SSE 37 44 20 24 - - -
07/08:00pm - - - - - SSE 32 39 17 21 - - -
07/07:30pm - - - - - SSE 32 39 17 21 - - -
07/07:00pm - - - - - SSE 32 37 17 20 - - -
07/06:30pm - - - - - SE 28 35 15 19 - - -
07/06:00pm - - - - - SE 32 37 17 20 - - -

Latest Capital City Observations: Canberra | Sydney | Melbourne | Brisbane | Adelaide | Perth | Hobart | Darwin

Other formats

Comma delimited format used in spreadsheet applications
http://www.bom.gov.au/fwo/IDQ60901/IDQ60901.94591.axf

JavaScript Object Notation format (JSON) in row-major order
http://www.bom.gov.au/fwo/IDQ60901/IDQ60901.94591.json

Data quality

Most of these data are generated automatically and are frequently updated. Quality checks on data are not normally performed. It is possible for incorrect values to appear. Refer to information at About Latest Weather Observations and please check the disclaimer before using these data.